Stevenage, United Kingdom
Current Conditions -  °F | °C
As of 9:50 AM on Friday 24 Oct 2014 (Local Time) from EGGW Reporting Station
Broken Clouds Broken Clouds  
Wind Chill: 57°   Ceiling: 600
Heat Index: 57°   Visibility: 6mi
Dew Point: 57°   Wind: 7mph
Humidity: 100%   Direction: 200°SSW
Pressure: 29.94"   Gusts: NA
Location:  51.9°N, 0.2°W
Report Text: EGGW 240850Z 20006KT 150V220 9999 BKN006 14/14 Q1014
Loading
Personal Weather Stations






























Interactive Weather Map
Tropical Storm Tracking
New forecast layout! Learn more

10-Day Weather Forecast

Advertisements
Track Severe Weather on mobile